sensor_id;sensor_type;location;lat;lon;timestamp;pressure;altitude;pressure_sealevel;temperature;humidity
12793;BME280;6460;42.684;23.260;2023-04-19T00:01:53;94173.00;;;11.05;91.39
12793;BME280;6460;42.684;23.260;2023-04-19T00:04:20;94179.16;;;11.05;90.36
12793;BME280;6460;42.684;23.260;2023-04-19T00:06:47;94181.06;;;11.05;90.68
12793;BME280;6460;42.684;23.260;2023-04-19T00:09:17;94182.38;;;10.85;92.61
12793;BME280;6460;42.684;23.260;2023-04-19T00:11:45;94172.44;;;10.89;92.67
12793;BME280;6460;42.684;23.260;2023-04-19T00:14:12;94176.53;;;10.79;93.57
12793;BME280;6460;42.684;23.260;2023-04-19T00:16:38;94172.28;;;10.75;94.51
12793;BME280;6460;42.684;23.260;2023-04-19T00:19:06;94167.78;;;10.86;93.75
12793;BME280;6460;42.684;23.260;2023-04-19T00:21:33;94165.09;;;10.86;94.37
12793;BME280;6460;42.684;23.260;2023-04-19T00:24:01;94168.22;;;10.91;93.37
12793;BME280;6460;42.684;23.260;2023-04-19T00:26:29;94158.19;;;10.85;93.54
12793;BME280;6460;42.684;23.260;2023-04-19T00:28:56;94158.34;;;10.99;92.64
12793;BME280;6460;42.684;23.260;2023-04-19T00:31:23;94153.69;;;10.96;92.66
12793;BME280;6460;42.684;23.260;2023-04-19T00:33:50;94155.38;;;11.11;91.77
12793;BME280;6460;42.684;23.260;2023-04-19T00:36:17;94161.22;;;11.17;90.87
12793;BME280;6460;42.684;23.260;2023-04-19T00:38:44;94162.88;;;10.95;91.27
12793;BME280;6460;42.684;23.260;2023-04-19T00:41:12;94166.91;;;11.11;91.41
12793;BME280;6460;42.684;23.260;2023-04-19T00:43:40;94162.31;;;11.12;91.00
12793;BME280;6460;42.684;23.260;2023-04-19T00:46:07;94162.50;;;10.93;91.60
12793;BME280;6460;42.684;23.260;2023-04-19T00:48:34;94160.53;;;10.90;91.99
12793;BME280;6460;42.684;23.260;2023-04-19T00:51:02;94162.75;;;10.81;92.21
12793;BME280;6460;42.684;23.260;2023-04-19T00:53:29;94157.38;;;10.81;92.70
12793;BME280;6460;42.684;23.260;2023-04-19T00:55:57;94154.59;;;10.74;92.88
12793;BME280;6460;42.684;23.260;2023-04-19T00:58:26;94156.16;;;10.75;92.94
12793;BME280;6460;42.684;23.260;2023-04-19T01:00:57;94152.38;;;10.49;93.36
12793;BME280;6460;42.684;23.260;2023-04-19T01:03:24;94156.03;;;10.38;94.93
12793;BME280;6460;42.684;23.260;2023-04-19T01:05:54;94144.38;;;10.56;94.84
12793;BME280;6460;42.684;23.260;2023-04-19T01:08:21;94143.22;;;10.24;96.75
12793;BME280;6460;42.684;23.260;2023-04-19T01:10:48;94150.13;;;10.25;97.54
12793;BME280;6460;42.684;23.260;2023-04-19T01:13:15;94143.50;;;10.45;96.45
12793;BME280;6460;42.684;23.260;2023-04-19T01:15:43;94140.94;;;10.26;97.11
12793;BME280;6460;42.684;23.260;2023-04-19T01:18:11;94134.72;;;9.96;99.72
12793;BME280;6460;42.684;23.260;2023-04-19T01:20:42;94136.50;;;10.11;98.30
12793;BME280;6460;42.684;23.260;2023-04-19T01:23:11;94138.00;;;10.12;98.92
12793;BME280;6460;42.684;23.260;2023-04-19T01:25:37;94135.06;;;10.17;99.16
12793;BME280;6460;42.684;23.260;2023-04-19T01:28:04;94139.78;;;10.01;99.96
12793;BME280;6460;42.684;23.260;2023-04-19T01:30:31;94137.41;;;9.96;100.00
12793;BME280;6460;42.684;23.260;2023-04-19T01:32:59;94136.84;;;10.09;100.00
12793;BME280;6460;42.684;23.260;2023-04-19T01:35:26;94134.34;;;10.20;100.00
12793;BME280;6460;42.684;23.260;2023-04-19T01:37:53;94134.28;;;10.17;100.00
12793;BME280;6460;42.684;23.260;2023-04-19T01:40:24;94131.34;;;10.02;100.00
12793;BME280;6460;42.684;23.260;2023-04-19T01:42:51;94127.22;;;10.08;100.00
12793;BME280;6460;42.684;23.260;2023-04-19T01:45:19;94134.34;;;10.20;100.00
12793;BME280;6460;42.684;23.260;2023-04-19T01:47:46;94131.19;;;10.15;100.00
12793;BME280;6460;42.684;23.260;2023-04-19T01:50:13;94137.25;;;10.11;100.00
12793;BME280;6460;42.684;23.260;2023-04-19T01:52:41;94139.56;;;10.13;100.00
12793;BME280;6460;42.684;23.260;2023-04-19T01:55:08;94135.13;;;10.21;100.00
12793;BME280;6460;42.684;23.260;2023-04-19T01:57:37;94145.97;;;9.79;100.00
12793;BME280;6460;42.684;23.260;2023-04-19T02:00:05;94137.72;;;9.91;100.00
12793;BME280;6460;42.684;23.260;2023-04-19T02:02:33;94131.22;;;9.66;100.00
12793;BME280;6460;42.684;23.260;2023-04-19T02:05:02;94138.28;;;9.77;100.00
12793;BME280;6460;42.684;23.260;2023-04-19T02:07:29;94132.34;;;9.91;100.00
12793;BME280;6460;42.684;23.260;2023-04-19T02:13:05;94133.50;;;9.67;100.00
12793;BME280;6460;42.684;23.260;2023-04-19T02:15:32;94136.91;;;9.64;100.00
12793;BME280;6460;42.684;23.260;2023-04-19T02:17:59;94140.81;;;9.67;100.00
12793;BME280;6460;42.684;23.260;2023-04-19T02:20:26;94127.16;;;9.52;100.00
12793;BME280;6460;42.684;23.260;2023-04-19T02:22:53;94129.31;;;9.43;100.00
12793;BME280;6460;42.684;23.260;2023-04-19T02:25:20;94131.16;;;9.17;100.00
12793;BME280;6460;42.684;23.260;2023-04-19T02:27:47;94129.91;;;9.33;100.00
12793;BME280;6460;42.684;23.260;2023-04-19T02:30:17;94137.22;;;9.59;100.00
12793;BME280;6460;42.684;23.260;2023-04-19T02:32:46;94136.44;;;9.58;100.00
12793;BME280;6460;42.684;23.260;2023-04-19T02:35:13;94129.59;;;9.38;100.00
12793;BME280;6460;42.684;23.260;2023-04-19T02:37:41;94120.44;;;9.39;100.00
12793;BME280;6460;42.684;23.260;2023-04-19T02:40:08;94123.44;;;9.34;100.00
12793;BME280;6460;42.684;23.260;2023-04-19T02:45:59;94126.69;;;9.24;100.00
12793;BME280;6460;42.684;23.260;2023-04-19T02:48:27;94128.28;;;9.29;100.00
12793;BME280;6460;42.684;23.260;2023-04-19T02:50:55;94132.56;;;9.11;100.00
12793;BME280;6460;42.684;23.260;2023-04-19T02:53:22;94126.25;;;8.99;100.00
12793;BME280;6460;42.684;23.260;2023-04-19T02:55:49;94124.50;;;8.88;100.00
12793;BME280;6460;42.684;23.260;2023-04-19T02:58:16;94123.75;;;9.10;100.00
12793;BME280;6460;42.684;23.260;2023-04-19T03:00:43;94119.06;;;9.26;100.00
12793;BME280;6460;42.684;23.260;2023-04-19T03:03:12;94125.00;;;9.16;100.00
12793;BME280;6460;42.684;23.260;2023-04-19T03:05:39;94118.91;;;9.16;100.00
12793;BME280;6460;42.684;23.260;2023-04-19T03:08:06;94120.41;;;8.94;100.00
12793;BME280;6460;42.684;23.260;2023-04-19T03:10:35;94130.38;;;9.16;100.00
12793;BME280;6460;42.684;23.260;2023-04-19T03:13:02;94119.72;;;9.20;100.00
12793;BME280;6460;42.684;23.260;2023-04-19T03:15:29;94122.22;;;9.32;100.00
12793;BME280;6460;42.684;23.260;2023-04-19T03:17:56;94124.53;;;9.33;100.00
12793;BME280;6460;42.684;23.260;2023-04-19T03:20:24;94123.88;;;9.17;100.00
12793;BME280;6460;42.684;23.260;2023-04-19T03:22:51;94126.75;;;9.50;100.00
12793;BME280;6460;42.684;23.260;2023-04-19T03:25:18;94123.47;;;9.38;100.00
12793;BME280;6460;42.684;23.260;2023-04-19T03:27:45;94128.16;;;8.99;100.00
12793;BME280;6460;42.684;23.260;2023-04-19T03:30:12;94126.47;;;8.91;100.00
12793;BME280;6460;42.684;23.260;2023-04-19T03:32:39;94123.41;;;9.12;100.00
12793;BME280;6460;42.684;23.260;2023-04-19T03:35:07;94128.72;;;9.08;100.00
12793;BME280;6460;42.684;23.260;2023-04-19T03:37:36;94128.06;;;9.15;100.00
12793;BME280;6460;42.684;23.260;2023-04-19T03:40:03;94124.53;;;9.11;100.00
12793;BME280;6460;42.684;23.260;2023-04-19T03:42:30;94130.38;;;9.16;100.00
12793;BME280;6460;42.684;23.260;2023-04-19T03:44:57;94125.72;;;9.13;100.00
12793;BME280;6460;42.684;23.260;2023-04-19T03:47:25;94124.41;;;9.26;100.00
12793;BME280;6460;42.684;23.260;2023-04-19T03:49:52;94126.38;;;9.07;100.00
12793;BME280;6460;42.684;23.260;2023-04-19T03:52:19;94124.47;;;9.07;100.00
12793;BME280;6460;42.684;23.260;2023-04-19T03:54:47;94118.19;;;9.19;100.00
12793;BME280;6460;42.684;23.260;2023-04-19T03:57:16;94118.94;;;9.19;100.00
12793;BME280;6460;42.684;23.260;2023-04-19T03:59:43;94130.13;;;9.02;100.00
12793;BME280;6460;42.684;23.260;2023-04-19T04:02:10;94124.91;;;9.09;100.00
12793;BME280;6460;42.684;23.260;2023-04-19T04:04:37;94120.13;;;8.99;100.00
12793;BME280;6460;42.684;23.260;2023-04-19T04:07:04;94126.44;;;9.10;100.00
12793;BME280;6460;42.684;23.260;2023-04-19T04:09:31;94122.50;;;9.04;100.00
12793;BME280;6460;42.684;23.260;2023-04-19T04:12:00;94126.25;;;8.99;100.00
12793;BME280;6460;42.684;23.260;2023-04-19T04:14:27;94136.34;;;9.06;100.00
12793;BME280;6460;42.684;23.260;2023-04-19T04:16:54;94125.41;;;8.95;100.00
12793;BME280;6460;42.684;23.260;2023-04-19T04:19:21;94119.84;;;8.85;100.00
12793;BME280;6460;42.684;23.260;2023-04-19T04:21:48;94124.25;;;8.74;100.00
12793;BME280;6460;42.684;23.260;2023-04-19T04:24:16;94128.50;;;8.97;100.00
12793;BME280;6460;42.684;23.260;2023-04-19T04:26:44;94126.19;;;8.96;100.00
12793;BME280;6460;42.684;23.260;2023-04-19T04:29:15;94130.25;;;9.09;100.00
12793;BME280;6460;42.684;23.260;2023-04-19T04:31:43;94131.63;;;8.99;100.00
12793;BME280;6460;42.684;23.260;2023-04-19T04:34:10;94135.06;;;9.00;100.00
12793;BME280;6460;42.684;23.260;2023-04-19T04:36:37;94133.88;;;8.97;100.00
12793;BME280;6460;42.684;23.260;2023-04-19T04:39:04;94131.97;;;8.98;100.00
12793;BME280;6460;42.684;23.260;2023-04-19T04:41:34;94138.44;;;8.97;100.00
12793;BME280;6460;42.684;23.260;2023-04-19T04:44:01;94134.59;;;9.17;100.00
12793;BME280;6460;42.684;23.260;2023-04-19T04:46:30;94135.56;;;9.28;100.00
12793;BME280;6460;42.684;23.260;2023-04-19T04:48:58;94137.41;;;9.24;100.00
12793;BME280;6460;42.684;23.260;2023-04-19T04:51:25;94142.00;;;9.24;100.00
12793;BME280;6460;42.684;23.260;2023-04-19T04:53:52;94137.81;;;9.26;100.00
12793;BME280;6460;42.684;23.260;2023-04-19T04:56:19;94142.97;;;9.12;100.00
12793;BME280;6460;42.684;23.260;2023-04-19T04:58:46;94147.88;;;9.10;100.00
12793;BME280;6460;42.684;23.260;2023-04-19T05:01:14;94149.31;;;9.04;100.00
12793;BME280;6460;42.684;23.260;2023-04-19T05:03:45;94144.66;;;9.01;100.00
12793;BME280;6460;42.684;23.260;2023-04-19T05:06:12;94142.38;;;9.03;100.00
12793;BME280;6460;42.684;23.260;2023-04-19T05:08:39;94143.53;;;9.02;100.00
12793;BME280;6460;42.684;23.260;2023-04-19T05:11:07;94142.56;;;8.91;100.00
12793;BME280;6460;42.684;23.260;2023-04-19T05:13:34;94144.38;;;9.06;100.00
12793;BME280;6460;42.684;23.260;2023-04-19T05:16:01;94145.03;;;9.22;100.00
12793;BME280;6460;42.684;23.260;2023-04-19T05:18:28;94148.91;;;9.02;100.00
12793;BME280;6460;42.684;23.260;2023-04-19T05:20:57;94154.72;;;9.08;100.00
12793;BME280;6460;42.684;23.260;2023-04-19T05:23:24;94146.84;;;9.37;100.00
12793;BME280;6460;42.684;23.260;2023-04-19T05:25:51;94146.44;;;9.16;100.00
12793;BME280;6460;42.684;23.260;2023-04-19T05:28:19;94151.06;;;9.16;100.00
12793;BME280;6460;42.684;23.260;2023-04-19T05:30:46;94155.91;;;9.10;100.00
12793;BME280;6460;42.684;23.260;2023-04-19T05:33:14;94148.13;;;9.24;100.00
12793;BME280;6460;42.684;23.260;2023-04-19T05:35:42;94157.19;;;9.16;100.00
12793;BME280;6460;42.684;23.260;2023-04-19T05:38:11;94148.72;;;9.14;100.00
12793;BME280;6460;42.684;23.260;2023-04-19T05:40:38;94152.78;;;9.27;100.00
12793;BME280;6460;42.684;23.260;2023-04-19T05:48:17;94147.78;;;9.26;100.00
12793;BME280;6460;42.684;23.260;2023-04-19T05:50:45;94155.28;;;9.39;100.00
12793;BME280;6460;42.684;23.260;2023-04-19T05:53:13;94153.84;;;9.45;100.00
12793;BME280;6460;42.684;23.260;2023-04-19T06:00:55;94156.31;;;9.31;100.00
12793;BME280;6460;42.684;23.260;2023-04-19T06:03:22;94150.81;;;9.24;100.00
12793;BME280;6460;42.684;23.260;2023-04-19T06:05:49;94154.22;;;9.21;100.00
12793;BME280;6460;42.684;23.260;2023-04-19T06:08:17;94164.47;;;9.38;100.00
12793;BME280;6460;42.684;23.260;2023-04-19T06:10:45;94163.81;;;9.45;100.00
12793;BME280;6460;42.684;23.260;2023-04-19T06:13:14;94160.53;;;9.55;100.00
12793;BME280;6460;42.684;23.260;2023-04-19T06:15:41;94163.28;;;9.58;100.00
12793;BME280;6460;42.684;23.260;2023-04-19T06:18:08;94168.88;;;9.73;100.00
12793;BME280;6460;42.684;23.260;2023-04-19T06:28:29;94171.31;;;9.58;100.00
12793;BME280;6460;42.684;23.260;2023-04-19T06:31:01;94164.25;;;9.70;100.00
12793;BME280;6460;42.684;23.260;2023-04-19T06:36:40;94163.53;;;9.73;100.00
12793;BME280;6460;42.684;23.260;2023-04-19T06:39:07;94171.66;;;9.80;100.00
12793;BME280;6460;42.684;23.260;2023-04-19T06:41:34;94171.56;;;9.99;100.00
12793;BME280;6460;42.684;23.260;2023-04-19T06:44:03;94174.34;;;9.80;100.00
12793;BME280;6460;42.684;23.260;2023-04-19T06:46:30;94177.47;;;9.82;100.00
12793;BME280;6460;42.684;23.260;2023-04-19T06:48:57;94176.78;;;9.88;100.00
12793;BME280;6460;42.684;23.260;2023-04-19T06:51:24;94176.00;;;9.88;100.00
12793;BME280;6460;42.684;23.260;2023-04-19T07:00:41;94183.31;;;9.65;100.00
12793;BME280;6460;42.684;23.260;2023-04-19T07:06:38;94186.16;;;9.52;100.00
12793;BME280;6460;42.684;23.260;2023-04-19T07:14:38;94183.63;;;9.60;100.00
12793;BME280;6460;42.684;23.260;2023-04-19T07:17:22;94178.03;;;9.94;100.00
12793;BME280;6460;42.684;23.260;2023-04-19T07:19:49;94184.47;;;9.90;100.00
12793;BME280;6460;42.684;23.260;2023-04-19T07:22:16;94184.25;;;9.98;100.00
12793;BME280;6460;42.684;23.260;2023-04-19T07:24:43;94183.75;;;9.93;100.00
12793;BME280;6460;42.684;23.260;2023-04-19T07:27:10;94183.56;;;10.05;100.00
12793;BME280;6460;42.684;23.260;2023-04-19T07:29:38;94186.34;;;10.12;100.00
12793;BME280;6460;42.684;23.260;2023-04-19T07:32:05;94179.94;;;10.17;100.00
12793;BME280;6460;42.684;23.260;2023-04-19T07:44:54;94191.59;;;10.28;98.99
12793;BME280;6460;42.684;23.260;2023-04-19T07:47:21;94186.09;;;10.47;98.69
12793;BME280;6460;42.684;23.260;2023-04-19T07:49:50;94182.69;;;10.50;97.69
12793;BME280;6460;42.684;23.260;2023-04-19T07:54:53;94189.38;;;10.63;96.94
12793;BME280;6460;42.684;23.260;2023-04-19T07:57:20;94181.78;;;10.39;98.31
12793;BME280;6460;42.684;23.260;2023-04-19T08:18:13;94184.00;;;10.93;95.72
12793;BME280;6460;42.684;23.260;2023-04-19T08:20:41;94187.41;;;10.90;95.57
12793;BME280;6460;42.684;23.260;2023-04-19T08:23:08;94193.03;;;10.78;96.07
12793;BME280;6460;42.684;23.260;2023-04-19T08:25:36;94196.81;;;10.73;97.22
12793;BME280;6460;42.684;23.260;2023-04-19T08:30:39;94188.47;;;10.82;96.00
12793;BME280;6460;42.684;23.260;2023-04-19T08:33:08;94190.44;;;10.85;94.57
12793;BME280;6460;42.684;23.260;2023-04-19T08:35:56;94182.25;;;11.07;95.00
12793;BME280;6460;42.684;23.260;2023-04-19T09:13:45;94155.69;;;12.34;85.63
12793;BME280;6460;42.684;23.260;2023-04-19T09:17:13;94159.03;;;12.17;86.89
12793;BME280;6460;42.684;23.260;2023-04-19T09:20:04;94146.31;;;12.14;87.09
12793;BME280;6460;42.684;23.260;2023-04-19T09:59:22;94128.38;;;13.93;75.06
12793;BME280;6460;42.684;23.260;2023-04-19T10:01:54;94134.56;;;13.65;76.10
12793;BME280;6460;42.684;23.260;2023-04-19T10:17:19;94124.09;;;14.20;74.69
12793;BME280;6460;42.684;23.260;2023-04-19T10:19:47;94123.69;;;14.43;74.47
12793;BME280;6460;42.684;23.260;2023-04-19T10:22:16;94134.50;;;14.39;73.82
12793;BME280;6460;42.684;23.260;2023-04-19T10:25:07;94119.81;;;14.51;73.25
12793;BME280;6460;42.684;23.260;2023-04-19T10:41:56;94104.09;;;15.18;68.62
12793;BME280;6460;42.684;23.260;2023-04-19T10:44:23;94086.31;;;15.14;68.73
12793;BME280;6460;42.684;23.260;2023-04-19T10:46:50;94102.63;;;15.00;69.03
12793;BME280;6460;42.684;23.260;2023-04-19T10:49:22;94098.53;;;14.70;68.61
12793;BME280;6460;42.684;23.260;2023-04-19T10:51:50;94098.97;;;14.55;69.57
12793;BME280;6460;42.684;23.260;2023-04-19T10:54:29;94081.06;;;14.86;69.19
12793;BME280;6460;42.684;23.260;2023-04-19T10:56:59;94085.78;;;14.67;68.68
12793;BME280;6460;42.684;23.260;2023-04-19T10:59:29;94089.16;;;14.86;66.89
12793;BME280;6460;42.684;23.260;2023-04-19T11:01:57;94083.25;;;15.12;63.70
12793;BME280;6460;42.684;23.260;2023-04-19T11:07:38;94106.03;;;15.14;65.32
12793;BME280;6460;42.684;23.260;2023-04-19T11:10:07;94086.72;;;15.12;65.27
12793;BME280;6460;42.684;23.260;2023-04-19T11:12:35;94066.25;;;15.66;63.89
12793;BME280;6460;42.684;23.260;2023-04-19T11:15:05;94077.75;;;16.22;62.72
12793;BME280;6460;42.684;23.260;2023-04-19T11:17:34;94083.25;;;15.70;63.91
12793;BME280;6460;42.684;23.260;2023-04-19T11:20:05;94070.88;;;16.14;62.01
12793;BME280;6460;42.684;23.260;2023-04-19T11:22:33;94069.63;;;16.18;62.69
12793;BME280;6460;42.684;23.260;2023-04-19T11:25:08;94070.72;;;16.65;60.33
12793;BME280;6460;42.684;23.260;2023-04-19T11:27:37;94070.09;;;16.47;61.75
12793;BME280;6460;42.684;23.260;2023-04-19T11:30:05;94073.56;;;16.51;59.34
12793;BME280;6460;42.684;23.260;2023-04-19T11:32:33;94064.56;;;16.61;58.94
12793;BME280;6460;42.684;23.260;2023-04-19T11:35:05;94074.97;;;16.66;58.42
12793;BME280;6460;42.684;23.260;2023-04-19T11:37:33;94063.47;;;17.16;56.19
12793;BME280;6460;42.684;23.260;2023-04-19T11:40:00;94069.25;;;16.54;56.14
12793;BME280;6460;42.684;23.260;2023-04-19T11:42:29;94061.63;;;16.79;55.55
12793;BME280;6460;42.684;23.260;2023-04-19T11:44:58;94058.41;;;16.20;56.40
12793;BME280;6460;42.684;23.260;2023-04-19T11:47:25;94059.66;;;16.49;56.57
12793;BME280;6460;42.684;23.260;2023-04-19T11:49:54;94065.84;;;15.68;58.15
12793;BME280;6460;42.684;23.260;2023-04-19T11:52:22;94067.84;;;16.05;57.88
12793;BME280;6460;42.684;23.260;2023-04-19T11:54:50;94057.94;;;15.87;59.13
12793;BME280;6460;42.684;23.260;2023-04-19T11:57:26;94048.34;;;16.20;58.33
12793;BME280;6460;42.684;23.260;2023-04-19T12:00:06;94045.97;;;16.60;58.05
12793;BME280;6460;42.684;23.260;2023-04-19T12:02:37;94042.78;;;17.48;58.06
12793;BME280;6460;42.684;23.260;2023-04-19T12:05:09;94040.88;;;17.22;55.14
12793;BME280;6460;42.684;23.260;2023-04-19T12:07:37;94055.16;;;17.53;54.87
12793;BME280;6460;42.684;23.260;2023-04-19T12:10:22;94040.31;;;18.08;51.26
12793;BME280;6460;42.684;23.260;2023-04-19T12:12:49;94041.84;;;18.09;51.21
12793;BME280;6460;42.684;23.260;2023-04-19T12:23:04;94032.22;;;17.31;50.90
12793;BME280;6460;42.684;23.260;2023-04-19T12:25:35;94035.00;;;18.01;51.75
12793;BME280;6460;42.684;23.260;2023-04-19T12:28:03;94025.53;;;17.62;49.66
12793;BME280;6460;42.684;23.260;2023-04-19T12:38:17;94024.50;;;16.72;58.90
12793;BME280;6460;42.684;23.260;2023-04-19T12:40:44;94028.09;;;16.92;55.81
12793;BME280;6460;42.684;23.260;2023-04-19T12:51:18;94024.88;;;17.01;56.83
12793;BME280;6460;42.684;23.260;2023-04-19T12:56:35;94023.69;;;17.56;54.32
12793;BME280;6460;42.684;23.260;2023-04-19T13:01:56;94033.09;;;16.33;58.19
12793;BME280;6460;42.684;23.260;2023-04-19T13:06:58;94029.22;;;16.31;58.92
12793;BME280;6460;42.684;23.260;2023-04-19T13:09:41;94031.50;;;15.99;61.29
12793;BME280;6460;42.684;23.260;2023-04-19T13:12:09;94040.31;;;15.69;63.03
12793;BME280;6460;42.684;23.260;2023-04-19T13:14:36;94049.00;;;15.39;63.25
12793;BME280;6460;42.684;23.260;2023-04-19T13:17:06;94052.75;;;15.01;64.51
12793;BME280;6460;42.684;23.260;2023-04-19T13:19:51;94048.59;;;14.86;66.39
12793;BME280;6460;42.684;23.260;2023-04-19T13:22:25;94052.56;;;14.63;66.90
12793;BME280;6460;42.684;23.260;2023-04-19T13:25:07;94049.56;;;14.37;68.15
12793;BME280;6460;42.684;23.260;2023-04-19T13:27:35;94047.63;;;14.30;67.43
12793;BME280;6460;42.684;23.260;2023-04-19T13:30:02;94051.13;;;14.27;67.65
12793;BME280;6460;42.684;23.260;2023-04-19T13:32:29;94045.72;;;14.20;68.79
12793;BME280;6460;42.684;23.260;2023-04-19T13:34:56;94035.69;;;14.17;68.03
12793;BME280;6460;42.684;23.260;2023-04-19T13:37:23;94041.13;;;14.13;68.51
12793;BME280;6460;42.684;23.260;2023-04-19T13:39:50;94044.22;;;14.12;68.94
12793;BME280;6460;42.684;23.260;2023-04-19T13:42:18;94048.03;;;14.25;68.63
12793;BME280;6460;42.684;23.260;2023-04-19T13:44:47;94041.56;;;14.99;67.00
12793;BME280;6460;42.684;23.260;2023-04-19T13:47:13;94035.91;;;15.34;66.92
12793;BME280;6460;42.684;23.260;2023-04-19T13:49:40;94038.56;;;15.41;65.01
12793;BME280;6460;42.684;23.260;2023-04-19T13:52:08;94034.31;;;15.40;64.21
12793;BME280;6460;42.684;23.260;2023-04-19T13:54:35;94035.88;;;15.38;64.19
12793;BME280;6460;42.684;23.260;2023-04-19T13:57:02;94040.81;;;15.53;64.53
12793;BME280;6460;42.684;23.260;2023-04-19T13:59:31;94035.78;;;15.52;65.41
12793;BME280;6460;42.684;23.260;2023-04-19T14:01:58;94039.69;;;15.47;65.17
12793;BME280;6460;42.684;23.260;2023-04-19T14:04:25;94031.84;;;15.63;64.53
12793;BME280;6460;42.684;23.260;2023-04-19T14:06:52;94037.09;;;15.81;64.51
12793;BME280;6460;42.684;23.260;2023-04-19T14:09:19;94038.84;;;16.02;65.30
12793;BME280;6460;42.684;23.260;2023-04-19T14:11:51;94027.56;;;16.07;63.57
12793;BME280;6460;42.684;23.260;2023-04-19T14:21:48;94025.41;;;15.87;63.57
12793;BME280;6460;42.684;23.260;2023-04-19T14:24:29;94023.03;;;15.93;65.42
12793;BME280;6460;42.684;23.260;2023-04-19T14:26:56;94022.19;;;16.00;64.71
12793;BME280;6460;42.684;23.260;2023-04-19T14:29:25;94025.03;;;16.26;63.26
12793;BME280;6460;42.684;23.260;2023-04-19T14:42:17;94018.06;;;16.89;58.59
12793;BME280;6460;42.684;23.260;2023-04-19T14:47:20;94028.88;;;16.93;59.80
12793;BME280;6460;42.684;23.260;2023-04-19T14:49:47;94030.53;;;17.14;61.80
12793;BME280;6460;42.684;23.260;2023-04-19T14:52:15;94031.25;;;17.18;63.64
12793;BME280;6460;42.684;23.260;2023-04-19T14:54:47;94029.59;;;16.97;66.29
12793;BME280;6460;42.684;23.260;2023-04-19T14:57:14;94028.47;;;16.64;66.66
12793;BME280;6460;42.684;23.260;2023-04-19T14:59:43;94028.22;;;16.52;67.07
12793;BME280;6460;42.684;23.260;2023-04-19T15:02:09;94032.63;;;17.03;65.62
12793;BME280;6460;42.684;23.260;2023-04-19T15:09:40;94033.13;;;17.21;64.44
12793;BME280;6460;42.684;23.260;2023-04-19T15:12:07;94033.41;;;17.03;65.66
12793;BME280;6460;42.684;23.260;2023-04-19T15:22:16;94042.97;;;15.76;70.51
12793;BME280;6460;42.684;23.260;2023-04-19T15:30:14;94058.00;;;15.80;70.85
12793;BME280;6460;42.684;23.260;2023-04-19T15:32:41;94061.19;;;15.72;71.31
12793;BME280;6460;42.684;23.260;2023-04-19T15:37:41;94054.78;;;15.93;70.93
12793;BME280;6460;42.684;23.260;2023-04-19T15:40:09;94057.13;;;15.91;70.25
12793;BME280;6460;42.684;23.260;2023-04-19T15:42:37;94056.41;;;15.83;69.33
12793;BME280;6460;42.684;23.260;2023-04-19T15:45:05;94060.16;;;16.00;68.40
12793;BME280;6460;42.684;23.260;2023-04-19T15:47:32;94049.34;;;15.96;68.17
12793;BME280;6460;42.684;23.260;2023-04-19T15:49:59;94060.84;;;16.07;69.72
12793;BME280;6460;42.684;23.260;2023-04-19T15:52:28;94057.44;;;16.37;67.86
12793;BME280;6460;42.684;23.260;2023-04-19T15:57:32;94064.59;;;16.88;67.08
12793;BME280;6460;42.684;23.260;2023-04-19T15:59:59;94067.19;;;16.68;67.16
12793;BME280;6460;42.684;23.260;2023-04-19T16:02:26;94061.25;;;16.43;68.18
12793;BME280;6460;42.684;23.260;2023-04-19T16:04:53;94067.72;;;16.15;69.48
12793;BME280;6460;42.684;23.260;2023-04-19T16:07:19;94064.06;;;15.95;70.57
12793;BME280;6460;42.684;23.260;2023-04-19T16:09:46;94062.34;;;16.12;70.63
12793;BME280;6460;42.684;23.260;2023-04-19T16:12:13;94065.13;;;15.60;70.89
12793;BME280;6460;42.684;23.260;2023-04-19T16:14:55;94065.56;;;16.00;70.99
12793;BME280;6460;42.684;23.260;2023-04-19T16:17:22;94066.66;;;16.06;68.88
12793;BME280;6460;42.684;23.260;2023-04-19T16:19:50;94059.28;;;15.65;68.93
12793;BME280;6460;42.684;23.260;2023-04-19T16:22:18;94070.94;;;15.62;69.03
12793;BME280;6460;42.684;23.260;2023-04-19T16:24:45;94074.47;;;15.52;68.66
12793;BME280;6460;42.684;23.260;2023-04-19T16:27:12;94089.22;;;15.44;68.20
12793;BME280;6460;42.684;23.260;2023-04-19T16:29:39;94083.16;;;15.22;69.96
12793;BME280;6460;42.684;23.260;2023-04-19T16:32:07;94086.00;;;14.98;71.85
12793;BME280;6460;42.684;23.260;2023-04-19T16:34:34;94089.94;;;14.86;73.08
12793;BME280;6460;42.684;23.260;2023-04-19T16:37:02;94089.50;;;14.95;71.71
12793;BME280;6460;42.684;23.260;2023-04-19T16:39:28;94086.41;;;14.96;72.14
12793;BME280;6460;42.684;23.260;2023-04-19T16:41:55;94086.00;;;15.01;71.99
12793;BME280;6460;42.684;23.260;2023-04-19T16:44:22;94087.53;;;15.06;72.08
12793;BME280;6460;42.684;23.260;2023-04-19T16:46:49;94094.19;;;14.87;72.82
12793;BME280;6460;42.684;23.260;2023-04-19T16:49:18;94096.53;;;14.81;73.41
12793;BME280;6460;42.684;23.260;2023-04-19T16:51:46;94096.97;;;14.73;74.28
12793;BME280;6460;42.684;23.260;2023-04-19T16:54:13;94097.38;;;14.64;74.83
12793;BME280;6460;42.684;23.260;2023-04-19T16:56:40;94098.19;;;14.51;75.06
12793;BME280;6460;42.684;23.260;2023-04-19T16:59:07;94098.22;;;14.47;75.27
12793;BME280;6460;42.684;23.260;2023-04-19T17:01:34;94106.31;;;14.40;75.58
12793;BME280;6460;42.684;23.260;2023-04-19T17:04:01;94111.34;;;14.31;76.15
12793;BME280;6460;42.684;23.260;2023-04-19T17:06:29;94118.34;;;14.00;76.31
12793;BME280;6460;42.684;23.260;2023-04-19T17:08:56;94129.16;;;13.83;77.13
12793;BME280;6460;42.684;23.260;2023-04-19T17:11:24;94128.31;;;13.22;78.92
12793;BME280;6460;42.684;23.260;2023-04-19T17:13:52;94136.81;;;13.24;79.93
12793;BME280;6460;42.684;23.260;2023-04-19T17:16:24;94128.69;;;13.10;78.95
12793;BME280;6460;42.684;23.260;2023-04-19T17:18:53;94127.84;;;12.92;76.36
12793;BME280;6460;42.684;23.260;2023-04-19T17:21:29;94132.09;;;13.03;76.05
12793;BME280;6460;42.684;23.260;2023-04-19T17:23:57;94133.56;;;12.80;75.87